Terminal Aerodrome Forecast
Issued by NWS

Home | Current Version | Previous Version | Graphics & Text | Print | Product List | Glossary Off
Versions: 1 2 3 4 5 6 7 8 9 10 11 12 13 14 15 16 17 18 19 20 21 22 23 24 25 26

000
FTUS41 KCLE 042200 AAA
TAFFDY
TAF AMD
KFDY 042214Z 0422/0518 29010KT P6SM BKN025
      TEMPO 0422/0502 SCT025 BKN035
     FM050200 31010KT P6SM BKN100 OVC200
     FM051300 32006KT P6SM BKN040 OVC150=

USA.gov is the U.S. government's official web portal to all federal, state and local government web resources and services.